Time;durP1;ratioP1;P1;durP2;ratioP2;P2;SDS_P1;SDS_P2;PMS_P1;PMS_P2;Temp;Humidity;BMP_temperature;BMP_pressure;BME280_temperature;BME280_humidity;BME280_pressure;Samples;Min_cycle;Max_cycle;Signal;HPM_P1;HPM_P2
2022/09/17 00:01:07;;;;;;;4.77;2.37;;;;;;;22.18;56.05;96193.63;4952235;29;20233;-78
2022/09/17 00:03:35;;;;;;;4.07;2.17;;;;;;;21.93;56.57;96183.97;4934657;29;20205;-78
2022/09/17 00:06:03;;;;;;;6.43;2.20;;;;;;;21.83;57.03;96193.84;4952330;29;20287;-79
2022/09/17 00:08:31;;;;;;;8.87;2.40;;;;;;;21.70;57.31;96182.91;4951788;29;20188;-79
2022/09/17 00:11:06;;;;;;;8.30;2.63;;;;;;;21.73;57.01;96180.78;4953098;29;20571;-77
2022/09/17 00:13:33;;;;;;;6.23;2.80;;;;;;;21.80;56.46;96180.97;4951798;29;20597;-78
2022/09/17 00:16:00;;;;;;;4.90;2.30;;;;;;;22.09;55.93;96191.13;4952103;29;20189;-78
2022/09/17 00:18:27;;;;;;;4.13;1.67;;;;;;;22.35;55.64;96183.91;4952266;29;20226;-78
2022/09/17 00:20:54;;;;;;;7.60;2.20;;;;;;;22.37;54.74;96174.84;4934444;29;20809;-77
2022/09/17 00:23:21;;;;;;;7.57;2.10;;;;;;;22.39;54.82;96182.59;4951932;29;20192;-78
2022/09/17 00:25:48;;;;;;;4.77;2.27;;;;;;;22.08;55.21;96179.75;4950974;29;20228;-78
2022/09/17 00:28:15;;;;;;;5.83;1.83;;;;;;;21.84;55.91;96161.22;4953188;29;20228;-79
2022/09/17 00:30:44;;;;;;;5.00;2.27;;;;;;;22.01;55.68;96177.94;4918799;29;20195;-79
2022/09/17 00:33:13;;;;;;;6.50;2.77;;;;;;;22.19;55.12;96168.06;4951951;29;20194;-78
2022/09/17 00:35:41;;;;;;;5.20;2.00;;;;;;;22.18;55.17;96171.69;4951672;29;20290;-78
2022/09/17 00:38:08;;;;;;;7.00;1.90;;;;;;;22.22;55.58;96171.19;4951382;28;20221;-78
2022/09/17 00:40:35;;;;;;;7.87;2.30;;;;;;;22.47;54.90;96175.53;4951793;29;20664;-78
2022/09/17 00:43:03;;;;;;;5.57;2.60;;;;;;;22.47;54.95;96174.69;4951038;29;20283;-78
2022/09/17 00:45:31;;;;;;;6.23;2.30;;;;;;;22.23;55.53;96162.31;4951862;29;20287;-78
2022/09/17 00:48:00;;;;;;;7.40;2.50;;;;;;;21.99;56.02;96154.34;4950812;29;20287;-78
2022/09/17 00:50:33;;;;;;;8.33;2.70;;;;;;;21.82;56.85;96171.13;4951305;29;20283;-77
2022/09/17 00:53:05;;;;;;;6.83;2.27;;;;;;;21.88;56.35;96158.09;4933699;29;20593;-78
2022/09/17 00:55:37;;;;;;;4.60;2.53;;;;;;;22.05;56.20;96161.59;4950949;29;20210;-78
2022/09/17 00:58:08;;;;;;;5.93;2.30;;;;;;;22.15;56.13;96148.28;4951585;29;20258;-78
2022/09/17 01:00:36;;;;;;;3.67;1.70;;;;;;;22.34;56.35;96164.63;4950904;29;20283;-78
2022/09/17 01:03:03;;;;;;;6.17;2.20;;;;;;;22.46;55.49;96152.75;4951389;29;20290;-78
2022/09/17 01:06:13;;;;;;;10.13;2.67;;;;;;;22.62;55.10;96152.81;4950663;29;20238;-79
2022/09/17 01:08:48;;;;;;;6.30;2.77;;;;;;;22.55;55.70;96157.03;4891603;29;20231;-80
2022/09/17 01:11:46;;;;;;;4.93;2.30;;;;;;;22.67;55.21;96163.66;4892178;29;20685;-78
2022/09/17 01:14:27;;;;;;;7.23;2.47;;;;;;;22.73;55.46;96148.16;4935577;29;20193;-78
2022/09/17 01:16:59;;;;;;;4.60;2.07;;;;;;;22.74;55.44;96150.63;4950759;29;20709;-78
2022/09/17 01:19:32;;;;;;;4.83;2.10;;;;;;;22.70;55.03;96145.84;4950757;29;20228;-78
2022/09/17 01:22:16;;;;;;;7.17;2.50;;;;;;;22.64;55.58;96142.06;4950213;29;20199;-77
2022/09/17 01:25:08;;;;;;;9.07;2.67;;;;;;;22.56;55.53;96132.31;4951112;28;20234;-78
2022/09/17 01:28:00;;;;;;;6.33;2.50;;;;;;;22.79;55.48;96152.78;4950817;29;20281;-78
2022/09/17 01:30:50;;;;;;;5.87;2.80;;;;;;;22.51;56.25;96112.66;4950466;29;20528;-78
2022/09/17 01:33:36;;;;;;;4.53;2.80;;;;;;;22.54;55.91;96142.22;4913783;29;20197;-78
2022/09/17 01:36:05;;;;;;;10.13;3.07;;;;;;;22.46;56.46;96144.81;4950190;29;20287;-78
2022/09/17 01:38:58;;;;;;;5.73;2.87;;;;;;;22.31;56.53;96138.56;4950572;29;20231;-79
2022/09/17 01:41:49;;;;;;;9.97;3.00;;;;;;;22.40;56.45;96134.94;4950932;29;20661;-79
2022/09/17 01:44:49;;;;;;;3.93;2.40;;;;;;;22.43;56.07;96124.06;4950261;29;20688;-79
2022/09/17 01:47:22;;;;;;;5.37;3.10;;;;;;;22.42;56.17;96129.50;4950314;29;20199;-78
2022/09/17 01:49:55;;;;;;;7.53;3.57;;;;;;;22.15;56.78;96093.72;4949916;28;20197;-78
2022/09/17 01:52:23;;;;;;;9.50;3.87;;;;;;;22.33;56.86;96138.41;4950518;29;20287;-78
2022/09/17 01:54:55;;;;;;;5.10;3.00;;;;;;;22.11;57.29;96137.25;4950949;29;20499;-78
2022/09/17 01:57:27;;;;;;;5.60;2.80;;;;;;;21.93;57.97;96133.88;4949765;29;20196;-79
2022/09/17 02:00:01;;;;;;;9.67;3.27;;;;;;;21.83;59.60;96128.75;4950469;29;20632;-79
2022/09/17 02:02:40;;;;;;;5.60;2.43;;;;;;;21.89;58.85;96119.38;4950184;29;20198;-78
2022/09/17 02:05:13;;;;;;;7.13;2.77;;;;;;;22.03;58.22;96134.56;4950033;29;20698;-77
2022/09/17 02:07:47;;;;;;;10.43;2.80;;;;;;;21.74;58.60;96136.78;4950272;29;20234;-78
2022/09/17 02:10:19;;;;;;;5.73;1.97;;;;;;;21.64;59.04;96138.72;4949532;29;20212;-76
2022/09/17 02:12:53;;;;;;;5.67;2.50;;;;;;;21.48;59.21;96133.38;4950098;29;20195;-76
2022/09/17 02:15:28;;;;;;;10.90;3.07;;;;;;;21.05;60.35;96144.88;4932351;29;20276;-76
2022/09/17 02:18:22;;;;;;;5.27;2.87;;;;;;;20.37;62.31;96130.72;4949518;29;20572;-77
2022/09/17 02:21:01;;;;;;;5.07;2.87;;;;;;;20.25;63.05;96124.88;4915456;29;20201;-76
2022/09/17 02:23:38;;;;;;;8.23;3.00;;;;;;;20.09;63.60;96135.19;4930164;29;20674;-76
2022/09/17 02:26:11;;;;;;;7.20;3.30;;;;;;;20.12;63.45;96139.34;4930465;29;20324;-76
2022/09/17 02:28:50;;;;;;;7.30;3.43;;;;;;;20.06;63.38;96130.25;4930785;29;20217;-76
2022/09/17 02:31:17;;;;;;;9.97;3.37;;;;;;;20.03;63.37;96127.91;4931089;29;20185;-76
2022/09/17 02:33:48;;;;;;;12.43;4.23;;;;;;;20.19;63.20;96148.28;4930768;29;20288;-76
2022/09/17 02:36:15;;;;;;;5.83;2.80;;;;;;;20.50;61.90;96146.13;4930041;29;20570;-76
2022/09/17 02:38:44;;;;;;;4.17;2.97;;;;;;;20.50;61.64;96146.94;4930265;29;20226;-77
2022/09/17 02:41:19;;;;;;;6.27;3.17;;;;;;;20.44;61.62;96129.16;4929780;29;20198;-77
2022/09/17 02:44:12;;;;;;;13.20;3.40;;;;;;;20.13;62.40;96133.13;4930177;29;20260;-77
2022/09/17 02:46:59;;;;;;;7.30;3.37;;;;;;;19.75;63.21;96101.84;4917739;29;20190;-76
2022/09/17 02:49:56;;;;;;;7.00;3.00;;;;;;;19.88;63.61;96131.22;4929784;29;20204;-76
2022/09/17 02:52:57;;;;;;;7.67;2.73;;;;;;;19.71;64.05;96129.41;4931067;29;20197;-77
2022/09/17 02:55:30;;;;;;;6.17;3.00;;;;;;;19.51;64.34;96086.69;4931781;29;20212;-78
2022/09/17 02:58:11;;;;;;;8.43;3.37;;;;;;;19.66;64.63;96102.75;4930913;29;20197;-78
2022/09/17 03:00:39;;;;;;;7.17;2.80;;;;;;;19.75;63.84;96102.69;4930373;29;20189;-78
2022/09/17 03:03:19;;;;;;;9.57;4.93;;;;;;;19.75;63.36;96076.41;4897137;29;20293;-78
2022/09/17 03:05:47;;;;;;;5.43;3.30;;;;;;;19.88;63.21;96089.19;4913378;29;20692;-77
2022/09/17 03:08:19;;;;;;;7.50;3.30;;;;;;;20.18;62.51;96099.28;4929953;29;20201;-78
2022/09/17 03:10:48;;;;;;;5.40;3.07;;;;;;;20.45;61.39;96080.81;4930266;29;20656;-77
2022/09/17 03:13:15;;;;;;;7.67;2.87;;;;;;;20.69;61.39;96070.44;4931238;29;20227;-78
2022/09/17 03:15:42;;;;;;;19.77;4.13;;;;;;;20.91;60.62;96069.91;4930571;29;20197;-77
2022/09/17 03:18:09;;;;;;;6.90;2.93;;;;;;;20.85;60.18;96061.81;4930339;29;20637;-78
2022/09/17 03:20:36;;;;;;;11.73;3.43;;;;;;;20.97;59.91;96065.81;4929778;29;20232;-78
2022/09/17 03:23:02;;;;;;;8.33;2.93;;;;;;;20.96;60.60;96046.56;4930001;29;20198;-78
2022/09/17 03:25:29;;;;;;;7.93;3.73;;;;;;;21.14;59.66;96050.94;4941506;29;20233;-78
2022/09/17 03:27:57;;;;;;;6.83;2.93;;;;;;;21.06;59.46;96044.66;4951337;29;20189;-77
2022/09/17 03:30:23;;;;;;;8.10;2.57;;;;;;;20.99;60.64;96054.16;4949605;29;20189;-77
2022/09/17 03:32:51;;;;;;;8.37;3.50;;;;;;;21.01;60.74;96060.09;4948619;28;20209;-77
2022/09/17 03:35:18;;;;;;;6.80;3.03;;;;;;;20.87;60.10;96060.69;4949438;29;20205;-77
2022/09/17 03:37:46;;;;;;;7.70;3.43;;;;;;;20.87;60.34;96055.41;4948957;29;20190;-77
2022/09/17 03:40:13;;;;;;;6.63;2.90;;;;;;;20.78;60.18;96045.00;4949418;29;20228;-77
2022/09/17 03:42:40;;;;;;;8.10;2.53;;;;;;;20.68;60.73;96049.53;4949317;29;20186;-76
2022/09/17 03:45:08;;;;;;;8.80;3.20;;;;;;;20.59;61.29;96048.66;4948748;29;20248;-77
2022/09/17 03:47:36;;;;;;;6.07;3.00;;;;;;;20.42;61.52;96040.84;4949346;29;20192;-77
2022/09/17 03:50:04;;;;;;;9.60;3.47;;;;;;;20.49;61.56;96047.94;4948583;29;20225;-78
2022/09/17 03:52:31;;;;;;;6.80;3.17;;;;;;;20.41;61.60;96053.16;4950717;29;20205;-78
2022/09/17 03:54:58;;;;;;;9.40;2.77;;;;;;;20.38;61.91;96068.44;4949164;29;20220;-77
2022/09/17 03:57:25;;;;;;;9.10;2.83;;;;;;;19.67;63.67;96059.72;4951123;28;20234;-78
2022/09/17 03:59:52;;;;;;;6.90;2.70;;;;;;;19.23;65.03;96043.81;4934405;29;20765;-77
2022/09/17 04:02:19;;;;;;;5.17;2.90;;;;;;;18.83;66.17;96051.22;4939488;29;20699;-77
2022/09/17 04:04:46;;;;;;;12.07;3.10;;;;;;;18.88;66.20;96048.13;4953925;29;20231;-77
2022/09/17 04:07:13;;;;;;;8.50;2.97;;;;;;;19.03;65.92;96039.66;4951122;28;20284;-76
2022/09/17 04:09:40;;;;;;;10.67;2.73;;;;;;;18.76;67.57;96029.16;4951163;28;20292;-78
2022/09/17 04:12:07;;;;;;;5.87;2.83;;;;;;;18.86;66.84;96029.91;4954724;28;20834;-78
2022/09/17 04:14:34;;;;;;;7.97;3.30;;;;;;;18.94;66.79;96032.66;4952665;29;20645;-76
2022/09/17 04:17:01;;;;;;;8.40;2.67;;;;;;;18.90;66.71;96026.03;4952211;28;20192;-77
2022/09/17 04:19:27;;;;;;;5.20;2.60;;;;;;;19.04;66.79;96025.53;4952011;29;20238;-75
2022/09/17 04:21:54;;;;;;;8.23;2.60;;;;;;;19.23;66.16;96022.81;4952302;28;20201;-77
2022/09/17 04:24:21;;;;;;;6.73;2.40;;;;;;;19.39;65.43;96024.84;4952574;28;20260;-75
2022/09/17 04:26:48;;;;;;;6.60;2.90;;;;;;;19.28;65.43;96009.25;4971854;28;20206;-78
2022/09/17 04:29:15;;;;;;;6.50;3.17;;;;;;;19.48;65.33;96026.56;4974540;28;20212;-76
2022/09/17 04:31:42;;;;;;;7.97;2.77;;;;;;;19.64;65.02;96036.41;4971877;28;20210;-79
2022/09/17 04:34:09;;;;;;;7.17;2.37;;;;;;;19.66;64.39;96044.97;4972102;28;20189;-79
2022/09/17 04:36:36;;;;;;;7.67;3.00;;;;;;;19.61;64.38;96037.53;4975641;28;20310;-78
2022/09/17 04:39:04;;;;;;;9.77;2.70;;;;;;;19.74;64.35;96045.84;4972240;28;20246;-77
2022/09/17 04:41:31;;;;;;;3.90;2.60;;;;;;;19.60;65.08;96032.44;4972334;28;20395;-79
2022/09/17 04:43:59;;;;;;;12.80;2.97;;;;;;;19.69;64.94;96028.88;4974245;28;20196;-79
2022/09/17 04:46:27;;;;;;;4.70;2.27;;;;;;;19.79;64.57;96029.63;4974597;28;20196;-78
2022/09/17 04:48:54;;;;;;;7.60;3.23;;;;;;;19.82;64.05;96039.84;4974616;28;20202;-78
2022/09/17 04:51:21;;;;;;;8.13;2.90;;;;;;;19.93;64.05;96043.06;4970913;28;20207;-80
2022/09/17 04:53:48;;;;;;;7.00;2.93;;;;;;;19.85;63.73;96047.41;4972401;28;20192;-77
2022/09/17 04:56:16;;;;;;;6.03;2.53;;;;;;;19.75;64.06;96044.03;4970887;28;20193;-77
2022/09/17 04:58:42;;;;;;;5.70;3.27;;;;;;;19.78;63.77;96051.63;4972877;28;20208;-77
2022/09/17 05:01:09;;;;;;;4.87;2.73;;;;;;;19.81;63.72;96028.50;4971129;28;20290;-77
2022/09/17 05:03:36;;;;;;;5.47;2.90;;;;;;;20.13;62.81;96034.03;4969756;28;20192;-77
2022/09/17 05:06:04;;;;;;;6.73;3.03;;;;;;;20.37;61.82;96043.09;4938610;29;20194;-77
2022/09/17 05:08:31;;;;;;;5.87;2.67;;;;;;;20.54;61.20;96039.59;4936482;29;20677;-77
2022/09/17 05:10:59;;;;;;;5.73;2.60;;;;;;;20.60;60.93;96033.72;4935001;29;20217;-78
2022/09/17 05:13:26;;;;;;;6.83;2.60;;;;;;;20.47;60.99;96030.66;4935823;29;20229;-78
2022/09/17 05:15:55;;;;;;;7.73;3.20;;;;;;;20.71;60.89;96038.72;4933722;29;20197;-78
2022/09/17 05:18:23;;;;;;;7.83;2.97;;;;;;;20.98;60.06;96039.34;4932689;29;20654;-78
2022/09/17 05:20:51;;;;;;;6.33;3.10;;;;;;;21.35;59.01;96046.91;4935254;29;20250;-78
2022/09/17 05:23:19;;;;;;;8.57;3.60;;;;;;;21.67;58.14;96046.16;4918450;29;20198;-80
2022/09/17 05:25:46;;;;;;;9.77;2.97;;;;;;;21.85;57.76;96033.69;4931487;29;20330;-78
2022/09/17 05:28:13;;;;;;;8.17;3.23;;;;;;;22.17;57.10;96025.81;4935601;29;20224;-78
2022/09/17 05:30:39;;;;;;;9.73;4.07;;;;;;;22.30;56.63;96014.72;4914400;29;20748;-77
2022/09/17 05:33:07;;;;;;;10.30;3.00;;;;;;;22.57;55.89;96014.34;4931190;29;20204;-77
2022/09/17 05:35:35;;;;;;;9.97;3.13;;;;;;;22.65;55.35;96014.34;4932185;29;20224;-77
2022/09/17 05:38:06;;;;;;;6.50;3.33;;;;;;;22.72;54.84;96011.88;4932095;29;20664;-78
2022/09/17 05:40:33;;;;;;;7.63;3.10;;;;;;;22.84;55.71;96003.41;4931789;29;20247;-78
2022/09/17 05:43:02;;;;;;;12.53;3.80;;;;;;;23.04;55.34;95998.56;4931183;29;20200;-78
2022/09/17 05:45:31;;;;;;;13.20;4.27;;;;;;;23.26;53.82;96003.06;4933628;29;20197;-76
2022/09/17 05:48:01;;;;;;;7.53;3.60;;;;;;;23.44;53.64;96024.81;4934181;29;20280;-77
2022/09/17 05:50:28;;;;;;;9.00;3.47;;;;;;;23.45;53.65;96026.47;4932289;29;20233;-78
2022/09/17 05:52:55;;;;;;;9.03;3.80;;;;;;;23.55;53.37;96027.06;4931403;29;20276;-81
2022/09/17 05:55:22;;;;;;;11.53;4.03;;;;;;;23.71;52.95;96013.75;4931279;29;20192;-77
2022/09/17 05:57:50;;;;;;;11.30;3.73;;;;;;;23.83;53.46;96012.31;4898505;29;20189;-78
2022/09/17 06:00:17;;;;;;;9.53;4.83;;;;;;;23.85;52.07;96002.38;4930845;29;20232;-78
2022/09/17 06:02:44;;;;;;;10.00;3.73;;;;;;;24.04;52.31;96011.69;4933167;29;20232;-79
2022/09/17 06:05:13;;;;;;;12.43;4.80;;;;;;;24.19;51.33;96018.66;4931009;29;20208;-77
2022/09/17 06:07:40;;;;;;;12.97;4.13;;;;;;;24.44;51.16;96015.81;4931345;29;20278;-79
2022/09/17 06:10:08;;;;;;;24.73;4.40;;;;;;;24.45;50.64;96004.22;4931624;29;20193;-78
2022/09/17 06:12:36;;;;;;;10.80;3.60;;;;;;;24.63;50.90;96015.28;4932538;29;20228;-79
2022/09/17 06:15:05;;;;;;;14.00;4.50;;;;;;;24.64;51.04;96022.22;4932572;29;20196;-78
2022/09/17 06:17:36;;;;;;;9.07;3.50;;;;;;;24.72;49.54;96024.78;4899493;29;20228;-78
2022/09/17 06:20:04;;;;;;;6.80;2.63;;;;;;;24.80;49.50;96032.69;4917536;29;20331;-79
2022/09/17 06:22:32;;;;;;;16.07;3.37;;;;;;;24.94;49.55;96029.19;4934601;29;20224;-79
2022/09/17 06:25:02;;;;;;;7.53;3.10;;;;;;;25.02;49.82;96037.06;4936985;29;20531;-79
2022/09/17 06:27:33;;;;;;;7.70;3.40;;;;;;;24.78;50.14;96034.69;4939057;29;20193;-80
2022/09/17 06:30:01;;;;;;;11.53;3.30;;;;;;;24.43;51.39;96043.28;4935213;29;20197;-78
2022/09/17 06:32:29;;;;;;;10.07;3.03;;;;;;;24.33;51.82;96034.78;4932940;29;20292;-78
2022/09/17 06:34:56;;;;;;;10.43;3.70;;;;;;;24.65;51.12;96031.81;4931655;29;20679;-78
2022/09/17 06:37:30;;;;;;;8.43;3.40;;;;;;;24.96;50.41;96037.78;4935256;29;20192;-79
2022/09/17 06:40:00;;;;;;;10.00;2.90;;;;;;;25.33;50.45;96042.13;4916604;29;20234;-79
2022/09/17 06:42:28;;;;;;;6.73;2.50;;;;;;;25.22;49.76;96038.16;4915690;29;20541;-78
2022/09/17 06:44:57;;;;;;;11.87;3.40;;;;;;;25.12;49.94;96042.94;4935217;29;20222;-79
2022/09/17 06:47:29;;;;;;;11.23;2.97;;;;;;;25.29;49.23;96039.06;4934526;29;20204;-81
2022/09/17 06:49:56;;;;;;;9.63;3.30;;;;;;;25.22;49.80;96048.75;4931147;29;21028;-79
2022/09/17 06:52:23;;;;;;;7.43;3.00;;;;;;;25.26;50.40;96042.09;4931648;29;20291;-78
2022/09/17 06:54:50;;;;;;;9.57;3.20;;;;;;;25.26;50.31;96052.69;4930059;29;20200;-79
2022/09/17 06:57:17;;;;;;;13.53;4.20;;;;;;;25.27;50.22;96049.00;4912269;29;20207;-79
2022/09/17 06:59:43;;;;;;;6.53;2.97;;;;;;;25.20;50.34;96053.44;4929886;29;20344;-78
2022/09/17 07:02:10;;;;;;;12.60;3.07;;;;;;;24.76;51.03;96060.53;4929597;29;20199;-80
2022/09/17 07:04:37;;;;;;;7.83;3.27;;;;;;;24.47;52.42;96052.50;4929496;29;20194;-78
2022/09/17 07:07:06;;;;;;;9.90;3.53;;;;;;;24.73;52.42;96055.59;4913526;29;20227;-78
2022/09/17 07:09:36;;;;;;;10.07;3.10;;;;;;;24.62;52.36;96056.84;4911662;29;20230;-78
2022/09/17 07:12:07;;;;;;;9.03;3.53;;;;;;;24.55;53.34;96061.19;4931545;29;20680;-78
2022/09/17 07:14:35;;;;;;;11.30;2.93;;;;;;;24.66;52.87;96059.94;4930392;29;20262;-79
2022/09/17 07:17:02;;;;;;;8.37;3.67;;;;;;;24.74;52.97;96060.72;4930372;29;20205;-79
2022/09/17 07:19:34;;;;;;;11.87;5.73;;;;;;;24.55;53.78;96061.19;4912825;29;20188;-79
2022/09/17 07:22:04;;;;;;;7.37;3.80;;;;;;;24.28;54.37;96051.19;4913151;29;20200;-80
2022/09/17 07:24:32;;;;;;;8.27;3.60;;;;;;;24.22;54.74;96049.25;4945151;29;20228;-78
2022/09/17 07:26:59;;;;;;;13.53;4.87;;;;;;;23.90;56.20;96020.38;4929553;29;20287;-78
2022/09/17 07:29:26;;;;;;;11.53;3.40;;;;;;;24.08;55.82;96034.16;4929332;29;20786;-80
2022/09/17 07:31:58;;;;;;;9.20;3.60;;;;;;;23.96;56.24;96038.19;4923306;29;20195;-79
2022/09/17 07:34:27;;;;;;;12.33;3.93;;;;;;;24.12;55.35;96065.38;4928904;29;20278;-82
2022/09/17 07:36:54;;;;;;;13.80;3.93;;;;;;;24.15;55.16;96054.41;4927766;29;20200;-79
2022/09/17 07:39:21;;;;;;;8.10;3.43;;;;;;;24.11;55.37;96031.16;4928956;29;20697;-79
2022/09/17 07:41:48;;;;;;;11.63;3.47;;;;;;;24.39;55.24;96048.13;4928394;29;20226;-78
2022/09/17 07:44:15;;;;;;;8.53;4.17;;;;;;;24.62;54.44;96053.38;4929108;29;20290;-76
2022/09/17 07:46:42;;;;;;;15.97;7.80;;;;;;;24.92;54.05;96052.41;4929957;29;20336;-78
2022/09/17 07:49:09;;;;;;;8.37;4.03;;;;;;;25.15;52.34;96049.66;4930704;29;20206;-78
2022/09/17 07:51:36;;;;;;;11.53;3.43;;;;;;;25.45;51.60;96060.06;4931465;29;20295;-78
2022/09/17 07:54:05;;;;;;;13.50;5.87;;;;;;;25.81;50.75;96050.31;4932328;29;20358;-78
2022/09/17 07:56:32;;;;;;;8.20;3.07;;;;;;;25.95;49.66;96039.81;4934412;29;20285;-79
2022/09/17 07:59:00;;;;;;;7.87;3.43;;;;;;;25.97;49.17;96043.09;4932486;29;20190;-78
2022/09/17 08:01:27;;;;;;;9.07;3.53;;;;;;;25.86;48.96;96039.13;4932545;29;20236;-78
2022/09/17 08:03:54;;;;;;;10.30;3.47;;;;;;;25.83;49.53;96035.03;4933884;29;20550;-78
2022/09/17 08:06:27;;;;;;;7.20;3.47;;;;;;;25.97;49.70;96043.09;4932637;29;20206;-77
2022/09/17 08:08:55;;;;;;;7.27;3.30;;;;;;;25.77;50.05;96038.44;4931518;29;20777;-78
2022/09/17 08:11:25;;;;;;;11.90;3.50;;;;;;;25.83;50.06;96031.53;4932537;29;20309;-78
2022/09/17 08:14:14;;;;;;;9.20;3.40;;;;;;;25.81;50.56;96039.69;4930752;29;20618;-77
2022/09/17 08:16:41;;;;;;;12.73;3.10;;;;;;;25.64;50.71;96011.75;4932647;29;20673;-78
2022/09/17 08:19:10;;;;;;;11.53;3.53;;;;;;;26.22;49.51;96052.38;4931788;29;20202;-79
2022/09/17 08:21:39;;;;;;;10.80;5.30;;;;;;;26.29;49.37;96038.16;4932181;29;20221;-78
2022/09/17 08:24:37;;;;;;;14.33;3.63;;;;;;;26.45;49.09;96039.69;4945900;28;20668;-77
2022/09/17 08:27:08;;;;;;;10.10;3.30;;;;;;;26.25;48.94;96020.97;4938295;28;20707;-76
2022/09/17 08:29:37;;;;;;;9.27;2.70;;;;;;;26.15;49.21;96023.09;4970774;28;20196;-77
2022/09/17 08:32:04;;;;;;;9.73;3.50;;;;;;;26.17;49.19;96012.31;4970517;28;20219;-78
2022/09/17 08:34:33;;;;;;;10.13;3.60;;;;;;;26.48;48.42;96032.16;4970839;28;20310;-78
2022/09/17 08:37:01;;;;;;;8.40;3.17;;;;;;;26.50;48.20;96013.41;4952801;28;20185;-78
2022/09/17 08:39:31;;;;;;;8.80;3.57;;;;;;;26.67;47.59;96013.94;4972015;28;20224;-79
2022/09/17 08:42:12;;;;;;;5.83;3.20;;;;;;;27.07;47.70;96016.66;4969884;28;20242;-78
2022/09/17 08:44:41;;;;;;;10.80;4.13;;;;;;;26.91;46.85;96011.66;4958373;28;20197;-79
2022/09/17 08:47:20;;;;;;;14.67;5.17;;;;;;;26.88;47.16;95997.91;4954688;28;20258;-78
2022/09/17 08:49:58;;;;;;;18.07;8.27;;;;;;;27.44;45.98;96001.28;4950415;29;20193;-77
2022/09/17 08:52:53;;;;;;;14.70;5.80;;;;;;;27.39;45.67;96000.03;4968800;28;20192;-78
2022/09/17 08:55:23;;;;;;;7.00;3.20;;;;;;;27.50;45.42;95993.31;4969923;28;20200;-78
2022/09/17 08:58:08;;;;;;;8.90;3.57;;;;;;;27.69;44.50;95994.41;4959704;28;20244;-78
2022/09/17 09:00:43;;;;;;;7.83;3.17;;;;;;;27.53;45.20;95994.78;4950302;28;20252;-80
2022/09/17 09:03:59;;;;;;;8.07;2.77;;;;;;;27.47;44.93;95979.63;4949388;29;20284;-78
2022/09/17 09:06:35;;;;;;;10.33;3.27;;;;;;;27.73;45.08;95983.16;4944292;29;20570;-78
2022/09/17 09:09:10;;;;;;;7.00;2.80;;;;;;;27.62;45.32;95972.28;4968906;28;20284;-79
2022/09/17 09:11:39;;;;;;;10.80;3.40;;;;;;;27.09;46.08;95964.09;4969916;28;20195;-79
2022/09/17 09:14:13;;;;;;;20.37;6.03;;;;;;;27.14;46.77;95960.84;4969810;28;20715;-78
2022/09/17 09:16:46;;;;;;;9.63;3.63;;;;;;;27.31;45.60;95964.78;4970551;28;20684;-77
2022/09/17 09:19:22;;;;;;;18.40;5.50;;;;;;;27.39;45.57;95962.81;4952218;28;20760;-79
2022/09/17 09:22:04;;;;;;;9.60;3.50;;;;;;;27.72;45.21;95960.22;4969390;28;20323;-78
2022/09/17 09:24:40;;;;;;;13.00;3.93;;;;;;;27.94;43.80;95961.69;4969478;28;20672;-81
2022/09/17 09:27:37;;;;;;;26.57;9.97;;;;;;;28.13;43.42;95966.22;4955896;28;20295;-81
2022/09/17 09:30:10;;;;;;;55.93;39.00;;;;;;;28.52;42.36;95965.38;4966372;28;20699;-79
2022/09/17 09:33:18;;;;;;;70.37;39.83;;;;;;;28.41;41.17;95926.06;4952030;28;20247;-79
2022/09/17 09:35:44;;;;;;;8.10;3.40;;;;;;;28.72;40.96;95939.56;4948107;28;20728;-76
2022/09/17 09:38:34;;;;;;;8.70;3.23;;;;;;;28.80;41.57;95936.66;4950302;29;20197;-76
2022/09/17 09:41:10;;;;;;;18.20;9.97;;;;;;;29.11;40.60;95922.59;4949420;29;20259;-76
2022/09/17 09:43:47;;;;;;;15.73;8.43;;;;;;;28.74;41.49;95920.69;4949660;29;20220;-76
2022/09/17 09:46:58;;;;;;;27.83;16.37;;;;;;;28.74;41.54;95915.34;4949382;29;20288;-76
2022/09/17 09:49:45;;;;;;;12.00;7.07;;;;;;;29.10;39.80;95915.63;4951777;29;20197;-78
2022/09/17 09:52:59;;;;;;;17.37;7.10;;;;;;;29.20;39.70;95909.88;4952686;29;20206;-75
2022/09/17 09:55:44;;;;;;;22.37;12.17;;;;;;;29.28;38.91;95906.97;4949512;29;20288;-75
2022/09/17 09:58:37;;;;;;;10.03;5.57;;;;;;;29.29;39.15;95911.25;4932641;29;20653;-76
2022/09/17 10:01:19;;;;;;;11.50;5.03;;;;;;;29.55;38.51;95914.59;4949370;29;20263;-76
2022/09/17 10:03:47;;;;;;;13.00;4.60;;;;;;;29.68;38.60;95919.03;4959835;28;20262;-75
2022/09/17 10:06:21;;;;;;;16.00;6.10;;;;;;;29.94;38.07;95908.22;4936389;28;20196;-76
2022/09/17 10:08:54;;;;;;;18.87;5.80;;;;;;;30.09;38.03;95907.88;4967478;28;20684;-75
2022/09/17 10:11:25;;;;;;;10.97;5.00;;;;;;;30.05;37.95;95882.63;4950212;28;20200;-75
2022/09/17 10:14:13;;;;;;;13.07;2.97;;;;;;;30.26;37.73;95903.59;4966741;28;20192;-76
2022/09/17 10:16:42;;;;;;;11.73;6.13;;;;;;;30.39;37.82;95901.66;4968191;28;20205;-79
2022/09/17 10:19:24;;;;;;;12.20;4.33;;;;;;;30.42;36.70;95895.03;4967875;28;20193;-75
2022/09/17 10:21:51;;;;;;;11.40;4.30;;;;;;;30.31;37.16;95893.13;4967465;28;20315;-75
2022/09/17 10:24:28;;;;;;;8.40;4.30;;;;;;;30.12;37.09;95884.22;4968256;28;20298;-76
2022/09/17 10:27:12;;;;;;;8.53;4.40;;;;;;;29.87;38.26;95899.41;4968457;28;20283;-74
2022/09/17 10:29:47;;;;;;;6.47;3.63;;;;;;;30.08;38.52;95891.03;4968099;28;20192;-73
2022/09/17 10:32:16;;;;;;;9.87;3.37;;;;;;;30.30;37.40;95881.59;4961172;28;20201;-76
2022/09/17 10:35:06;;;;;;;8.03;3.43;;;;;;;30.71;37.26;95875.59;4949862;28;20228;-77
2022/09/17 10:37:41;;;;;;;10.93;4.93;;;;;;;30.75;36.79;95878.66;4948648;29;20199;-75
2022/09/17 10:40:17;;;;;;;9.87;3.37;;;;;;;30.86;36.47;95883.28;4948463;29;20193;-77
2022/09/17 10:42:46;;;;;;;14.13;5.30;;;;;;;30.82;36.39;95874.88;4948520;29;20216;-75
2022/09/17 10:45:28;;;;;;;12.90;3.00;;;;;;;30.60;36.52;95875.53;4949130;29;20189;-76
2022/09/17 10:47:58;;;;;;;23.37;5.50;;;;;;;30.45;37.01;95890.09;4930740;29;20192;-76
2022/09/17 10:50:30;;;;;;;7.97;3.57;;;;;;;30.26;37.11;95891.06;4949083;29;20610;-76
2022/09/17 10:53:15;;;;;;;12.73;3.47;;;;;;;30.24;38.14;95889.63;4951546;29;20228;-76
2022/09/17 10:55:45;;;;;;;13.83;4.03;;;;;;;30.13;38.53;95895.72;4949069;29;20241;-76
2022/09/17 10:58:33;;;;;;;12.60;3.57;;;;;;;29.84;38.03;95881.19;4949347;29;20272;-76
2022/09/17 11:01:00;;;;;;;8.77;2.87;;;;;;;29.59;39.29;95877.63;4948107;29;20225;-76
2022/09/17 11:03:55;;;;;;;7.10;2.63;;;;;;;29.40;39.31;95890.06;4948920;29;20296;-77
2022/09/17 11:06:49;;;;;;;10.43;3.70;;;;;;;29.42;40.64;95892.50;4953165;28;20272;-76
2022/09/17 11:09:25;;;;;;;11.33;3.23;;;;;;;29.37;40.14;95884.31;4952500;28;20271;-77
2022/09/17 11:12:35;;;;;;;13.23;3.80;;;;;;;29.29;40.66;95892.56;4967691;28;20576;-75
2022/09/17 11:15:12;;;;;;;11.10;2.83;;;;;;;29.17;40.05;95888.94;4929472;29;20218;-75
2022/09/17 11:18:16;;;;;;;10.13;2.87;;;;;;;28.66;40.42;95811.66;4949292;28;20599;-76
2022/09/17 11:20:59;;;;;;;8.37;2.40;;;;;;;29.04;40.10;95857.00;4933790;28;20258;-76
2022/09/17 11:23:53;;;;;;;7.57;2.43;;;;;;;29.01;39.84;95857.41;4967553;28;20677;-76
2022/09/17 11:26:35;;;;;;;9.83;2.63;;;;;;;28.95;40.10;95859.09;4967691;28;20328;-76
2022/09/17 11:29:20;;;;;;;7.47;2.67;;;;;;;28.89;40.24;95860.75;4959463;28;20548;-77
2022/09/17 11:32:09;;;;;;;6.17;2.80;;;;;;;28.85;39.54;95870.19;4951052;28;20201;-76
2022/09/17 11:34:46;;;;;;;12.37;3.87;;;;;;;28.87;40.85;95886.78;4953324;28;20255;-76
2022/09/17 11:37:20;;;;;;;12.60;3.80;;;;;;;28.83;44.70;95898.91;4967611;28;20735;-76
2022/09/17 11:40:14;;;;;;;8.93;3.30;;;;;;;28.52;46.80;95920.09;4964966;28;20291;-75
2022/09/17 11:42:55;;;;;;;9.37;3.10;;;;;;;28.19;49.39;95964.59;4967412;28;20326;-75
2022/09/17 11:45:36;;;;;;;8.67;3.67;;;;;;;27.95;51.29;96042.34;4967456;28;20192;-76
2022/09/17 11:48:15;;;;;;;10.83;4.07;;;;;;;27.41;54.77;96081.50;4965297;28;20236;-74
2022/09/17 11:50:57;;;;;;;11.30;3.63;;;;;;;26.77;58.12;96120.72;4945835;28;20250;-75
2022/09/17 11:53:51;;;;;;;9.67;3.40;;;;;;;26.11;59.06;96214.81;4955606;28;20284;-75
2022/09/17 11:56:26;;;;;;;15.00;2.53;;;;;;;24.55;65.94;96213.94;4907037;29;20679;-75
2022/09/17 11:59:18;;;;;;;6.63;2.97;;;;;;;23.37;68.43;96180.59;4929194;29;20197;-75
2022/09/17 12:02:01;;;;;;;6.63;1.57;;;;;;;22.95;67.64;96200.28;4946102;28;20242;-76